sensor_id;sensor_type;location;lat;lon;timestamp;P1;durP1;ratioP1;P2;durP2;ratioP2
29570;SDS011;16814;52.118;11.436;2022-10-16T00:01:59;1.40;;;1.10;;
29570;SDS011;16814;52.118;11.436;2022-10-16T00:04:24;1.70;;;1.00;;
29570;SDS011;16814;52.118;11.436;2022-10-16T00:06:50;2.20;;;1.30;;
29570;SDS011;16814;52.118;11.436;2022-10-16T00:09:15;1.23;;;1.13;;
29570;SDS011;16814;52.118;11.436;2022-10-16T00:11:41;2.40;;;1.20;;
29570;SDS011;16814;52.118;11.436;2022-10-16T00:14:08;1.60;;;1.20;;
29570;SDS011;16814;52.118;11.436;2022-10-16T00:16:36;1.23;;;1.13;;
29570;SDS011;16814;52.118;11.436;2022-10-16T00:19:02;1.77;;;1.20;;
29570;SDS011;16814;52.118;11.436;2022-10-16T00:21:29;1.75;;;1.20;;
29570;SDS011;16814;52.118;11.436;2022-10-16T00:23:56;2.85;;;1.30;;
29570;SDS011;16814;52.118;11.436;2022-10-16T00:26:27;1.70;;;1.20;;
29570;SDS011;16814;52.118;11.436;2022-10-16T00:28:54;1.45;;;1.35;;
29570;SDS011;16814;52.118;11.436;2022-10-16T00:31:20;5.57;;;1.90;;
29570;SDS011;16814;52.118;11.436;2022-10-16T00:33:47;4.32;;;1.90;;
29570;SDS011;16814;52.118;11.436;2022-10-16T00:36:14;3.70;;;1.90;;
29570;SDS011;16814;52.118;11.436;2022-10-16T00:38:42;3.60;;;1.80;;
29570;SDS011;16814;52.118;11.436;2022-10-16T00:41:09;7.03;;;2.17;;
29570;SDS011;16814;52.118;11.436;2022-10-16T00:46:25;2.23;;;1.90;;
29570;SDS011;16814;52.118;11.436;2022-10-16T00:48:57;3.20;;;1.90;;
29570;SDS011;16814;52.118;11.436;2022-10-16T00:51:38;2.20;;;1.80;;
29570;SDS011;16814;52.118;11.436;2022-10-16T00:54:13;2.70;;;1.67;;
29570;SDS011;16814;52.118;11.436;2022-10-16T00:56:45;2.10;;;1.60;;
29570;SDS011;16814;52.118;11.436;2022-10-16T00:59:14;3.80;;;1.52;;
29570;SDS011;16814;52.118;11.436;2022-10-16T01:01:42;2.17;;;1.40;;
29570;SDS011;16814;52.118;11.436;2022-10-16T01:04:08;2.08;;;1.60;;
29570;SDS011;16814;52.118;11.436;2022-10-16T01:06:46;4.13;;;1.53;;
29570;SDS011;16814;52.118;11.436;2022-10-16T01:09:39;3.00;;;1.70;;
29570;SDS011;16814;52.118;11.436;2022-10-16T01:17:53;3.00;;;1.80;;
29570;SDS011;16814;52.118;11.436;2022-10-16T01:20:31;2.30;;;1.60;;
29570;SDS011;16814;52.118;11.436;2022-10-16T01:28:18;2.05;;;1.83;;
29570;SDS011;16814;52.118;11.436;2022-10-16T01:30:46;2.30;;;1.98;;
29570;SDS011;16814;52.118;11.436;2022-10-16T01:33:21;3.38;;;2.65;;
29570;SDS011;16814;52.118;11.436;2022-10-16T01:35:55;3.10;;;2.50;;
29570;SDS011;16814;52.118;11.436;2022-10-16T01:38:32;4.00;;;2.88;;
29570;SDS011;16814;52.118;11.436;2022-10-16T01:41:11;6.00;;;3.10;;
29570;SDS011;16814;52.118;11.436;2022-10-16T01:43:42;4.18;;;3.10;;
29570;SDS011;16814;52.118;11.436;2022-10-16T01:46:11;5.03;;;3.15;;
29570;SDS011;16814;52.118;11.436;2022-10-16T01:48:39;7.45;;;3.40;;
29570;SDS011;16814;52.118;11.436;2022-10-16T01:51:06;8.18;;;3.33;;
29570;SDS011;16814;52.118;11.436;2022-10-16T01:53:38;4.23;;;3.20;;
29570;SDS011;16814;52.118;11.436;2022-10-16T01:56:07;6.00;;;3.23;;
29570;SDS011;16814;52.118;11.436;2022-10-16T01:58:37;3.97;;;3.10;;
29570;SDS011;16814;52.118;11.436;2022-10-16T02:01:11;4.40;;;3.40;;
29570;SDS011;16814;52.118;11.436;2022-10-16T02:03:40;5.72;;;4.10;;
29570;SDS011;16814;52.118;11.436;2022-10-16T02:06:08;8.43;;;4.38;;
29570;SDS011;16814;52.118;11.436;2022-10-16T02:08:34;8.48;;;4.55;;
29570;SDS011;16814;52.118;11.436;2022-10-16T02:11:00;6.22;;;4.53;;
29570;SDS011;16814;52.118;11.436;2022-10-16T02:13:29;5.25;;;3.63;;
29570;SDS011;16814;52.118;11.436;2022-10-16T02:15:59;4.82;;;3.60;;
29570;SDS011;16814;52.118;11.436;2022-10-16T02:18:25;4.27;;;3.40;;
29570;SDS011;16814;52.118;11.436;2022-10-16T02:23:54;3.40;;;2.90;;
29570;SDS011;16814;52.118;11.436;2022-10-16T02:26:25;3.90;;;2.60;;
29570;SDS011;16814;52.118;11.436;2022-10-16T02:29:02;4.53;;;2.95;;
29570;SDS011;16814;52.118;11.436;2022-10-16T02:31:32;4.65;;;2.80;;
29570;SDS011;16814;52.118;11.436;2022-10-16T02:34:01;6.43;;;3.70;;
29570;SDS011;16814;52.118;11.436;2022-10-16T02:36:29;7.63;;;4.47;;
29570;SDS011;16814;52.118;11.436;2022-10-16T02:38:56;8.30;;;4.10;;
29570;SDS011;16814;52.118;11.436;2022-10-16T02:41:24;7.93;;;3.78;;
29570;SDS011;16814;52.118;11.436;2022-10-16T02:43:49;6.18;;;3.63;;
29570;SDS011;16814;52.118;11.436;2022-10-16T02:46:15;5.17;;;3.47;;
29570;SDS011;16814;52.118;11.436;2022-10-16T02:48:42;6.10;;;3.22;;
29570;SDS011;16814;52.118;11.436;2022-10-16T02:51:08;5.40;;;3.00;;
29570;SDS011;16814;52.118;11.436;2022-10-16T02:53:33;4.43;;;2.60;;
29570;SDS011;16814;52.118;11.436;2022-10-16T02:55:58;8.65;;;2.83;;
29570;SDS011;16814;52.118;11.436;2022-10-16T02:58:24;3.20;;;2.23;;
29570;SDS011;16814;52.118;11.436;2022-10-16T03:00:49;3.43;;;2.30;;
29570;SDS011;16814;52.118;11.436;2022-10-16T03:03:15;2.90;;;2.10;;
29570;SDS011;16814;52.118;11.436;2022-10-16T03:05:42;3.85;;;2.28;;
29570;SDS011;16814;52.118;11.436;2022-10-16T03:08:08;5.47;;;2.50;;
29570;SDS011;16814;52.118;11.436;2022-10-16T03:10:34;3.70;;;2.07;;
29570;SDS011;16814;52.118;11.436;2022-10-16T03:12:59;3.15;;;2.05;;
29570;SDS011;16814;52.118;11.436;2022-10-16T03:15:25;2.80;;;1.90;;
29570;SDS011;16814;52.118;11.436;2022-10-16T03:17:50;2.67;;;1.90;;
29570;SDS011;16814;52.118;11.436;2022-10-16T03:20:16;3.88;;;1.77;;
29570;SDS011;16814;52.118;11.436;2022-10-16T03:22:41;2.70;;;1.87;;
29570;SDS011;16814;52.118;11.436;2022-10-16T03:25:07;2.80;;;1.60;;
29570;SDS011;16814;52.118;11.436;2022-10-16T03:27:33;4.38;;;1.88;;
29570;SDS011;16814;52.118;11.436;2022-10-16T03:29:58;1.70;;;1.37;;
29570;SDS011;16814;52.118;11.436;2022-10-16T03:32:24;3.95;;;1.42;;
29570;SDS011;16814;52.118;11.436;2022-10-16T03:34:50;3.30;;;1.50;;
29570;SDS011;16814;52.118;11.436;2022-10-16T03:37:15;2.40;;;1.60;;
29570;SDS011;16814;52.118;11.436;2022-10-16T03:39:41;2.50;;;1.50;;
29570;SDS011;16814;52.118;11.436;2022-10-16T03:42:06;4.23;;;1.87;;
29570;SDS011;16814;52.118;11.436;2022-10-16T03:44:32;2.23;;;1.53;;
29570;SDS011;16814;52.118;11.436;2022-10-16T03:46:57;4.00;;;1.80;;
29570;SDS011;16814;52.118;11.436;2022-10-16T03:49:23;3.13;;;1.60;;
29570;SDS011;16814;52.118;11.436;2022-10-16T03:51:48;2.10;;;1.50;;
29570;SDS011;16814;52.118;11.436;2022-10-16T03:54:14;12.53;;;2.27;;
29570;SDS011;16814;52.118;11.436;2022-10-16T03:56:39;8.67;;;2.30;;
29570;SDS011;16814;52.118;11.436;2022-10-16T03:59:05;3.60;;;1.85;;
29570;SDS011;16814;52.118;11.436;2022-10-16T04:01:30;2.50;;;1.60;;
29570;SDS011;16814;52.118;11.436;2022-10-16T04:03:56;3.20;;;1.73;;
29570;SDS011;16814;52.118;11.436;2022-10-16T04:06:21;3.50;;;1.40;;
29570;SDS011;16814;52.118;11.436;2022-10-16T04:08:47;3.78;;;2.10;;
29570;SDS011;16814;52.118;11.436;2022-10-16T04:11:12;3.73;;;2.70;;
29570;SDS011;16814;52.118;11.436;2022-10-16T04:13:38;3.73;;;2.80;;
29570;SDS011;16814;52.118;11.436;2022-10-16T04:16:03;3.60;;;2.77;;
29570;SDS011;16814;52.118;11.436;2022-10-16T04:18:29;4.68;;;2.97;;
29570;SDS011;16814;52.118;11.436;2022-10-16T04:20:55;4.27;;;3.10;;
29570;SDS011;16814;52.118;11.436;2022-10-16T04:23:20;5.30;;;3.67;;
29570;SDS011;16814;52.118;11.436;2022-10-16T04:25:47;3.38;;;2.65;;
29570;SDS011;16814;52.118;11.436;2022-10-16T04:28:13;4.03;;;2.80;;
29570;SDS011;16814;52.118;11.436;2022-10-16T04:30:38;8.63;;;3.70;;
29570;SDS011;16814;52.118;11.436;2022-10-16T04:33:04;6.50;;;3.30;;
29570;SDS011;16814;52.118;11.436;2022-10-16T04:35:29;5.70;;;3.55;;
29570;SDS011;16814;52.118;11.436;2022-10-16T04:37:57;6.07;;;4.03;;
29570;SDS011;16814;52.118;11.436;2022-10-16T04:40:23;4.40;;;3.50;;
29570;SDS011;16814;52.118;11.436;2022-10-16T04:42:48;4.20;;;3.38;;
29570;SDS011;16814;52.118;11.436;2022-10-16T04:45:14;6.20;;;3.50;;
29570;SDS011;16814;52.118;11.436;2022-10-16T04:47:39;6.03;;;3.20;;
29570;SDS011;16814;52.118;11.436;2022-10-16T04:50:06;6.07;;;3.42;;
29570;SDS011;16814;52.118;11.436;2022-10-16T04:52:32;5.60;;;3.67;;
29570;SDS011;16814;52.118;11.436;2022-10-16T04:54:57;4.13;;;3.37;;
29570;SDS011;16814;52.118;11.436;2022-10-16T04:57:26;8.52;;;4.30;;
29570;SDS011;16814;52.118;11.436;2022-10-16T04:59:52;6.90;;;4.60;;
29570;SDS011;16814;52.118;11.436;2022-10-16T05:02:17;6.33;;;4.33;;
29570;SDS011;16814;52.118;11.436;2022-10-16T05:04:43;4.90;;;4.20;;
29570;SDS011;16814;52.118;11.436;2022-10-16T05:07:08;7.57;;;4.70;;
29570;SDS011;16814;52.118;11.436;2022-10-16T05:09:34;6.65;;;4.30;;
29570;SDS011;16814;52.118;11.436;2022-10-16T05:11:59;4.73;;;3.90;;
29570;SDS011;16814;52.118;11.436;2022-10-16T05:14:25;7.13;;;3.70;;
29570;SDS011;16814;52.118;11.436;2022-10-16T05:16:50;4.50;;;3.72;;
29570;SDS011;16814;52.118;11.436;2022-10-16T05:19:16;6.30;;;3.87;;
29570;SDS011;16814;52.118;11.436;2022-10-16T05:21:42;5.45;;;3.65;;
29570;SDS011;16814;52.118;11.436;2022-10-16T05:24:07;4.60;;;3.60;;
29570;SDS011;16814;52.118;11.436;2022-10-16T05:26:34;5.03;;;3.33;;
29570;SDS011;16814;52.118;11.436;2022-10-16T05:28:59;8.13;;;3.43;;
29570;SDS011;16814;52.118;11.436;2022-10-16T05:31:25;4.03;;;3.20;;
29570;SDS011;16814;52.118;11.436;2022-10-16T05:33:50;4.43;;;3.45;;
29570;SDS011;16814;52.118;11.436;2022-10-16T05:36:16;4.27;;;3.20;;
29570;SDS011;16814;52.118;11.436;2022-10-16T05:38:52;5.38;;;3.03;;
29570;SDS011;16814;52.118;11.436;2022-10-16T05:41:17;4.17;;;2.97;;
29570;SDS011;16814;52.118;11.436;2022-10-16T05:43:46;6.10;;;2.90;;
29570;SDS011;16814;52.118;11.436;2022-10-16T05:46:12;5.43;;;3.13;;
29570;SDS011;16814;52.118;11.436;2022-10-16T05:48:38;8.13;;;2.75;;
29570;SDS011;16814;52.118;11.436;2022-10-16T05:51:05;6.53;;;2.67;;
29570;SDS011;16814;52.118;11.436;2022-10-16T05:53:33;4.13;;;2.75;;
29570;SDS011;16814;52.118;11.436;2022-10-16T05:56:00;7.25;;;2.92;;
29570;SDS011;16814;52.118;11.436;2022-10-16T05:58:30;3.47;;;2.90;;
29570;SDS011;16814;52.118;11.436;2022-10-16T06:00:58;3.70;;;2.55;;
29570;SDS011;16814;52.118;11.436;2022-10-16T06:03:26;3.97;;;2.90;;
29570;SDS011;16814;52.118;11.436;2022-10-16T06:05:51;5.40;;;3.05;;
29570;SDS011;16814;52.118;11.436;2022-10-16T06:08:17;6.03;;;3.17;;
29570;SDS011;16814;52.118;11.436;2022-10-16T06:10:44;5.45;;;3.33;;
29570;SDS011;16814;52.118;11.436;2022-10-16T06:13:11;4.53;;;2.80;;
29570;SDS011;16814;52.118;11.436;2022-10-16T06:15:37;4.50;;;2.90;;
29570;SDS011;16814;52.118;11.436;2022-10-16T06:18:04;9.23;;;3.38;;
29570;SDS011;16814;52.118;11.436;2022-10-16T06:20:30;5.35;;;3.33;;
29570;SDS011;16814;52.118;11.436;2022-10-16T06:22:56;7.40;;;3.00;;
29570;SDS011;16814;52.118;11.436;2022-10-16T06:25:21;6.35;;;3.20;;
29570;SDS011;16814;52.118;11.436;2022-10-16T06:27:47;3.90;;;2.90;;
29570;SDS011;16814;52.118;11.436;2022-10-16T06:30:12;8.30;;;3.20;;
29570;SDS011;16814;52.118;11.436;2022-10-16T06:32:38;4.97;;;2.80;;
29570;SDS011;16814;52.118;11.436;2022-10-16T06:35:04;5.00;;;2.80;;
29570;SDS011;16814;52.118;11.436;2022-10-16T06:37:29;10.10;;;2.80;;
29570;SDS011;16814;52.118;11.436;2022-10-16T06:39:55;2.87;;;2.43;;
29570;SDS011;16814;52.118;11.436;2022-10-16T06:42:21;4.70;;;2.45;;
29570;SDS011;16814;52.118;11.436;2022-10-16T06:44:46;4.63;;;2.53;;
29570;SDS011;16814;52.118;11.436;2022-10-16T06:47:12;4.77;;;2.60;;
29570;SDS011;16814;52.118;11.436;2022-10-16T06:49:37;3.83;;;2.40;;
29570;SDS011;16814;52.118;11.436;2022-10-16T06:52:03;3.78;;;2.65;;
29570;SDS011;16814;52.118;11.436;2022-10-16T06:54:28;3.70;;;2.67;;
29570;SDS011;16814;52.118;11.436;2022-10-16T06:56:54;7.57;;;3.90;;
29570;SDS011;16814;52.118;11.436;2022-10-16T06:59:22;3.50;;;3.15;;
29570;SDS011;16814;52.118;11.436;2022-10-16T07:01:48;6.75;;;3.28;;
29570;SDS011;16814;52.118;11.436;2022-10-16T07:04:14;5.00;;;3.53;;
29570;SDS011;16814;52.118;11.436;2022-10-16T07:06:39;5.47;;;3.17;;
29570;SDS011;16814;52.118;11.436;2022-10-16T07:09:06;5.17;;;3.23;;
29570;SDS011;16814;52.118;11.436;2022-10-16T07:11:33;3.60;;;3.15;;
29570;SDS011;16814;52.118;11.436;2022-10-16T07:14:01;4.28;;;3.33;;
29570;SDS011;16814;52.118;11.436;2022-10-16T07:16:27;3.50;;;3.20;;
29570;SDS011;16814;52.118;11.436;2022-10-16T07:18:55;5.05;;;2.95;;
29570;SDS011;16814;52.118;11.436;2022-10-16T07:21:25;5.22;;;3.10;;
29570;SDS011;16814;52.118;11.436;2022-10-16T07:23:53;8.77;;;2.85;;
29570;SDS011;16814;52.118;11.436;2022-10-16T07:26:20;4.38;;;2.95;;
29570;SDS011;16814;52.118;11.436;2022-10-16T07:28:47;3.70;;;2.80;;
29570;SDS011;16814;52.118;11.436;2022-10-16T07:31:13;4.63;;;2.93;;
29570;SDS011;16814;52.118;11.436;2022-10-16T07:33:40;5.60;;;3.30;;
29570;SDS011;16814;52.118;11.436;2022-10-16T07:36:08;8.07;;;3.10;;
29570;SDS011;16814;52.118;11.436;2022-10-16T07:38:33;4.63;;;2.90;;
29570;SDS011;16814;52.118;11.436;2022-10-16T07:41:00;4.35;;;3.05;;
29570;SDS011;16814;52.118;11.436;2022-10-16T07:43:30;4.28;;;3.00;;
29570;SDS011;16814;52.118;11.436;2022-10-16T07:45:56;5.00;;;2.70;;
29570;SDS011;16814;52.118;11.436;2022-10-16T07:48:22;3.97;;;2.40;;
29570;SDS011;16814;52.118;11.436;2022-10-16T07:50:49;3.20;;;2.30;;
29570;SDS011;16814;52.118;11.436;2022-10-16T07:53:15;4.27;;;2.40;;
29570;SDS011;16814;52.118;11.436;2022-10-16T07:55:40;3.50;;;2.35;;
29570;SDS011;16814;52.118;11.436;2022-10-16T07:58:06;3.57;;;2.37;;
29570;SDS011;16814;52.118;11.436;2022-10-16T08:00:32;2.50;;;2.30;;
29570;SDS011;16814;52.118;11.436;2022-10-16T08:02:58;5.45;;;2.25;;
29570;SDS011;16814;52.118;11.436;2022-10-16T08:05:27;4.70;;;2.22;;
29570;SDS011;16814;52.118;11.436;2022-10-16T08:07:53;2.95;;;2.33;;
29570;SDS011;16814;52.118;11.436;2022-10-16T08:10:21;3.13;;;2.08;;
29570;SDS011;16814;52.118;11.436;2022-10-16T08:12:49;4.10;;;1.90;;
29570;SDS011;16814;52.118;11.436;2022-10-16T08:15:14;4.60;;;2.10;;
29570;SDS011;16814;52.118;11.436;2022-10-16T08:17:40;2.60;;;1.80;;
29570;SDS011;16814;52.118;11.436;2022-10-16T08:20:05;5.13;;;2.03;;
29570;SDS011;16814;52.118;11.436;2022-10-16T08:22:31;2.30;;;1.67;;
29570;SDS011;16814;52.118;11.436;2022-10-16T08:24:57;3.03;;;1.80;;
29570;SDS011;16814;52.118;11.436;2022-10-16T08:27:22;2.10;;;1.57;;
29570;SDS011;16814;52.118;11.436;2022-10-16T08:29:48;2.93;;;1.60;;
29570;SDS011;16814;52.118;11.436;2022-10-16T08:32:14;3.95;;;1.40;;
29570;SDS011;16814;52.118;11.436;2022-10-16T08:34:40;1.55;;;1.02;;
29570;SDS011;16814;52.118;11.436;2022-10-16T08:37:05;3.70;;;1.00;;
29570;SDS011;16814;52.118;11.436;2022-10-16T08:39:32;1.88;;;0.90;;
29570;SDS011;16814;52.118;11.436;2022-10-16T08:42:07;2.23;;;0.87;;
29570;SDS011;16814;52.118;11.436;2022-10-16T08:44:41;2.25;;;0.85;;
29570;SDS011;16814;52.118;11.436;2022-10-16T08:50:36;3.40;;;0.90;;
29570;SDS011;16814;52.118;11.436;2022-10-16T08:53:04;4.07;;;1.00;;
29570;SDS011;16814;52.118;11.436;2022-10-16T08:55:37;6.13;;;1.20;;
29570;SDS011;16814;52.118;11.436;2022-10-16T08:58:13;0.98;;;0.82;;
29570;SDS011;16814;52.118;11.436;2022-10-16T09:00:41;2.40;;;0.90;;
29570;SDS011;16814;52.118;11.436;2022-10-16T09:03:14;1.90;;;0.90;;
29570;SDS011;16814;52.118;11.436;2022-10-16T09:08:56;2.47;;;1.13;;
29570;SDS011;16814;52.118;11.436;2022-10-16T09:12:00;3.88;;;0.85;;
29570;SDS011;16814;52.118;11.436;2022-10-16T09:15:01;1.90;;;0.82;;
29570;SDS011;16814;52.118;11.436;2022-10-16T09:20:44;6.00;;;1.10;;
29570;SDS011;16814;52.118;11.436;2022-10-16T09:23:15;1.57;;;0.90;;
29570;SDS011;16814;52.118;11.436;2022-10-16T09:25:50;3.33;;;1.20;;
29570;SDS011;16814;52.118;11.436;2022-10-16T09:28:17;3.80;;;1.00;;
29570;SDS011;16814;52.118;11.436;2022-10-16T09:30:43;1.92;;;1.00;;
29570;SDS011;16814;52.118;11.436;2022-10-16T09:33:10;2.63;;;0.90;;
29570;SDS011;16814;52.118;11.436;2022-10-16T09:35:38;1.90;;;0.90;;
29570;SDS011;16814;52.118;11.436;2022-10-16T09:38:06;6.80;;;1.30;;
29570;SDS011;16814;52.118;11.436;2022-10-16T09:46:06;3.80;;;1.13;;
29570;SDS011;16814;52.118;11.436;2022-10-16T09:48:48;3.60;;;0.80;;
29570;SDS011;16814;52.118;11.436;2022-10-16T09:51:19;1.95;;;0.90;;
29570;SDS011;16814;52.118;11.436;2022-10-16T09:54:13;3.45;;;0.85;;
29570;SDS011;16814;52.118;11.436;2022-10-16T09:56:40;1.67;;;0.80;;
29570;SDS011;16814;52.118;11.436;2022-10-16T09:59:13;2.80;;;0.90;;
29570;SDS011;16814;52.118;11.436;2022-10-16T10:01:52;2.90;;;1.00;;
29570;SDS011;16814;52.118;11.436;2022-10-16T10:04:20;1.25;;;0.70;;
29570;SDS011;16814;52.118;11.436;2022-10-16T10:06:51;2.30;;;0.80;;
29570;SDS011;16814;52.118;11.436;2022-10-16T10:14:31;3.00;;;0.73;;
29570;SDS011;16814;52.118;11.436;2022-10-16T10:17:07;3.00;;;1.00;;
29570;SDS011;16814;52.118;11.436;2022-10-16T10:19:40;4.63;;;0.90;;
29570;SDS011;16814;52.118;11.436;2022-10-16T10:22:39;0.95;;;0.65;;
29570;SDS011;16814;52.118;11.436;2022-10-16T10:27:40;3.08;;;0.80;;
29570;SDS011;16814;52.118;11.436;2022-10-16T10:35:41;1.35;;;0.70;;
29570;SDS011;16814;52.118;11.436;2022-10-16T10:38:41;2.57;;;0.80;;
29570;SDS011;16814;52.118;11.436;2022-10-16T10:52:34;1.63;;;0.60;;
29570;SDS011;16814;52.118;11.436;2022-10-16T10:55:31;1.60;;;0.67;;
29570;SDS011;16814;52.118;11.436;2022-10-16T11:01:17;1.80;;;0.60;;
29570;SDS011;16814;52.118;11.436;2022-10-16T11:03:57;2.15;;;0.70;;
29570;SDS011;16814;52.118;11.436;2022-10-16T11:06:33;2.20;;;0.80;;
29570;SDS011;16814;52.118;11.436;2022-10-16T11:12:02;2.60;;;0.88;;
29570;SDS011;16814;52.118;11.436;2022-10-16T11:14:35;1.87;;;0.97;;
29570;SDS011;16814;52.118;11.436;2022-10-16T11:17:08;4.85;;;0.70;;
29570;SDS011;16814;52.118;11.436;2022-10-16T11:19:42;3.78;;;0.80;;
29570;SDS011;16814;52.118;11.436;2022-10-16T11:27:56;4.15;;;0.75;;
29570;SDS011;16814;52.118;11.436;2022-10-16T11:30:27;1.60;;;0.40;;
29570;SDS011;16814;52.118;11.436;2022-10-16T11:35:52;3.22;;;1.10;;
29570;SDS011;16814;52.118;11.436;2022-10-16T11:38:27;1.42;;;0.60;;
29570;SDS011;16814;52.118;11.436;2022-10-16T11:47:11;2.10;;;0.60;;
29570;SDS011;16814;52.118;11.436;2022-10-16T11:49:51;2.70;;;0.80;;
29570;SDS011;16814;52.118;11.436;2022-10-16T11:52:39;2.72;;;0.70;;
29570;SDS011;16814;52.118;11.436;2022-10-16T11:55:14;2.30;;;0.50;;
29570;SDS011;16814;52.118;11.436;2022-10-16T11:57:49;2.30;;;0.80;;
29570;SDS011;16814;52.118;11.436;2022-10-16T12:00:24;1.80;;;0.50;;
29570;SDS011;16814;52.118;11.436;2022-10-16T12:03:00;2.20;;;0.50;;
29570;SDS011;16814;52.118;11.436;2022-10-16T12:05:50;1.90;;;0.57;;
29570;SDS011;16814;52.118;11.436;2022-10-16T12:08:36;2.05;;;0.50;;
29570;SDS011;16814;52.118;11.436;2022-10-16T12:11:06;2.55;;;0.60;;
29570;SDS011;16814;52.118;11.436;2022-10-16T12:13:34;3.15;;;0.60;;
29570;SDS011;16814;52.118;11.436;2022-10-16T12:18:41;3.30;;;0.50;;
29570;SDS011;16814;52.118;11.436;2022-10-16T12:21:09;0.85;;;0.43;;
29570;SDS011;16814;52.118;11.436;2022-10-16T12:23:51;1.67;;;0.40;;
29570;SDS011;16814;52.118;11.436;2022-10-16T12:26:25;2.30;;;0.50;;
29570;SDS011;16814;52.118;11.436;2022-10-16T12:28:53;1.40;;;0.50;;
29570;SDS011;16814;52.118;11.436;2022-10-16T12:31:20;3.15;;;0.60;;
29570;SDS011;16814;52.118;11.436;2022-10-16T12:37:13;1.07;;;0.50;;
29570;SDS011;16814;52.118;11.436;2022-10-16T12:39:46;1.57;;;0.70;;
29570;SDS011;16814;52.118;11.436;2022-10-16T12:42:23;1.63;;;0.53;;
29570;SDS011;16814;52.118;11.436;2022-10-16T12:44:58;2.90;;;0.70;;
29570;SDS011;16814;52.118;11.436;2022-10-16T12:49:56;3.63;;;0.67;;
29570;SDS011;16814;52.118;11.436;2022-10-16T12:52:26;3.50;;;0.70;;
29570;SDS011;16814;52.118;11.436;2022-10-16T12:54:58;3.40;;;0.77;;
29570;SDS011;16814;52.118;11.436;2022-10-16T12:57:29;2.60;;;0.50;;
29570;SDS011;16814;52.118;11.436;2022-10-16T13:00:31;4.60;;;0.50;;
29570;SDS011;16814;52.118;11.436;2022-10-16T13:03:25;1.47;;;0.50;;
29570;SDS011;16814;52.118;11.436;2022-10-16T13:06:20;4.18;;;0.45;;
29570;SDS011;16814;52.118;11.436;2022-10-16T13:08:57;3.05;;;0.50;;
29570;SDS011;16814;52.118;11.436;2022-10-16T13:11:49;1.05;;;0.35;;
29570;SDS011;16814;52.118;11.436;2022-10-16T13:17:14;5.13;;;0.60;;
29570;SDS011;16814;52.118;11.436;2022-10-16T13:20:13;1.10;;;0.37;;
29570;SDS011;16814;52.118;11.436;2022-10-16T13:22:50;2.50;;;0.50;;
29570;SDS011;16814;52.118;11.436;2022-10-16T13:25:41;2.05;;;0.70;;
29570;SDS011;16814;52.118;11.436;2022-10-16T13:28:14;2.13;;;0.35;;
29570;SDS011;16814;52.118;11.436;2022-10-16T13:30:44;2.30;;;0.50;;
29570;SDS011;16814;52.118;11.436;2022-10-16T13:33:19;2.90;;;0.40;;
29570;SDS011;16814;52.118;11.436;2022-10-16T13:35:52;1.80;;;0.40;;
29570;SDS011;16814;52.118;11.436;2022-10-16T13:38:20;2.63;;;0.50;;
29570;SDS011;16814;52.118;11.436;2022-10-16T13:40:52;4.37;;;0.40;;
29570;SDS011;16814;52.118;11.436;2022-10-16T13:43:32;0.70;;;0.35;;
29570;SDS011;16814;52.118;11.436;2022-10-16T13:46:23;1.25;;;0.47;;
29570;SDS011;16814;52.118;11.436;2022-10-16T13:49:04;3.80;;;0.40;;
29570;SDS011;16814;52.118;11.436;2022-10-16T13:51:36;2.80;;;0.60;;
29570;SDS011;16814;52.118;11.436;2022-10-16T13:54:01;0.90;;;0.50;;
29570;SDS011;16814;52.118;11.436;2022-10-16T13:56:28;2.05;;;0.50;;
29570;SDS011;16814;52.118;11.436;2022-10-16T13:59:05;1.03;;;0.40;;
29570;SDS011;16814;52.118;11.436;2022-10-16T14:01:46;2.77;;;0.50;;
29570;SDS011;16814;52.118;11.436;2022-10-16T14:04:12;2.97;;;1.10;;
29570;SDS011;16814;52.118;11.436;2022-10-16T14:06:43;0.80;;;0.30;;
29570;SDS011;16814;52.118;11.436;2022-10-16T14:11:50;8.20;;;0.68;;
29570;SDS011;16814;52.118;11.436;2022-10-16T14:14:18;1.77;;;0.40;;
29570;SDS011;16814;52.118;11.436;2022-10-16T14:16:44;1.77;;;0.40;;
29570;SDS011;16814;52.118;11.436;2022-10-16T14:19:21;4.57;;;0.60;;
29570;SDS011;16814;52.118;11.436;2022-10-16T14:21:50;2.47;;;0.50;;
29570;SDS011;16814;52.118;11.436;2022-10-16T14:24:35;4.60;;;0.50;;
29570;SDS011;16814;52.118;11.436;2022-10-16T14:27:01;1.55;;;0.47;;
29570;SDS011;16814;52.118;11.436;2022-10-16T14:29:27;1.80;;;0.40;;
29570;SDS011;16814;52.118;11.436;2022-10-16T14:31:57;2.20;;;0.68;;
29570;SDS011;16814;52.118;11.436;2022-10-16T14:34:37;1.75;;;0.43;;
29570;SDS011;16814;52.118;11.436;2022-10-16T14:37:16;2.45;;;0.70;;
29570;SDS011;16814;52.118;11.436;2022-10-16T14:39:52;1.40;;;0.40;;
29570;SDS011;16814;52.118;11.436;2022-10-16T14:42:19;1.20;;;0.45;;
29570;SDS011;16814;52.118;11.436;2022-10-16T14:44:48;1.13;;;0.40;;
29570;SDS011;16814;52.118;11.436;2022-10-16T14:47:18;1.13;;;0.40;;
29570;SDS011;16814;52.118;11.436;2022-10-16T14:49:47;3.25;;;0.40;;
29570;SDS011;16814;52.118;11.436;2022-10-16T14:52:13;1.80;;;0.55;;
29570;SDS011;16814;52.118;11.436;2022-10-16T14:54:39;1.65;;;0.60;;
29570;SDS011;16814;52.118;11.436;2022-10-16T14:57:05;3.30;;;0.50;;
29570;SDS011;16814;52.118;11.436;2022-10-16T14:59:45;0.90;;;0.40;;
29570;SDS011;16814;52.118;11.436;2022-10-16T15:02:20;1.75;;;0.57;;
29570;SDS011;16814;52.118;11.436;2022-10-16T15:04:54;1.17;;;0.32;;
29570;SDS011;16814;52.118;11.436;2022-10-16T15:07:20;0.60;;;0.35;;
29570;SDS011;16814;52.118;11.436;2022-10-16T15:09:45;2.03;;;0.50;;
29570;SDS011;16814;52.118;11.436;2022-10-16T15:12:11;1.30;;;0.30;;
29570;SDS011;16814;52.118;11.436;2022-10-16T15:14:36;2.03;;;0.50;;
29570;SDS011;16814;52.118;11.436;2022-10-16T15:17:02;4.78;;;0.80;;
29570;SDS011;16814;52.118;11.436;2022-10-16T15:19:28;2.47;;;0.80;;
29570;SDS011;16814;52.118;11.436;2022-10-16T15:21:54;2.67;;;0.40;;
29570;SDS011;16814;52.118;11.436;2022-10-16T15:24:19;1.30;;;0.40;;
29570;SDS011;16814;52.118;11.436;2022-10-16T15:26:45;1.80;;;0.50;;
29570;SDS011;16814;52.118;11.436;2022-10-16T15:29:11;3.50;;;0.50;;
29570;SDS011;16814;52.118;11.436;2022-10-16T15:31:37;3.50;;;0.60;;
29570;SDS011;16814;52.118;11.436;2022-10-16T15:34:03;1.75;;;0.50;;
29570;SDS011;16814;52.118;11.436;2022-10-16T15:36:32;2.50;;;0.30;;
29570;SDS011;16814;52.118;11.436;2022-10-16T15:39:02;1.45;;;0.40;;
29570;SDS011;16814;52.118;11.436;2022-10-16T15:41:28;1.52;;;0.50;;
29570;SDS011;16814;52.118;11.436;2022-10-16T15:43:54;2.27;;;0.50;;
29570;SDS011;16814;52.118;11.436;2022-10-16T15:46:20;2.13;;;0.50;;
29570;SDS011;16814;52.118;11.436;2022-10-16T15:48:50;0.90;;;0.50;;
29570;SDS011;16814;52.118;11.436;2022-10-16T15:51:20;2.50;;;0.50;;
29570;SDS011;16814;52.118;11.436;2022-10-16T15:53:45;2.50;;;0.50;;
29570;SDS011;16814;52.118;11.436;2022-10-16T15:56:11;1.52;;;0.50;;
29570;SDS011;16814;52.118;11.436;2022-10-16T15:58:37;3.33;;;0.50;;
29570;SDS011;16814;52.118;11.436;2022-10-16T16:01:03;5.00;;;1.00;;
29570;SDS011;16814;52.118;11.436;2022-10-16T16:03:29;2.15;;;0.40;;
29570;SDS011;16814;52.118;11.436;2022-10-16T16:05:56;2.33;;;0.60;;
29570;SDS011;16814;52.118;11.436;2022-10-16T16:08:21;3.77;;;0.40;;
29570;SDS011;16814;52.118;11.436;2022-10-16T16:10:57;3.92;;;0.77;;
29570;SDS011;16814;52.118;11.436;2022-10-16T16:13:24;2.30;;;1.00;;
29570;SDS011;16814;52.118;11.436;2022-10-16T16:15:49;4.27;;;1.77;;
29570;SDS011;16814;52.118;11.436;2022-10-16T16:18:15;5.27;;;1.33;;
29570;SDS011;16814;52.118;11.436;2022-10-16T16:20:40;1.63;;;0.80;;